Time;durP1;ratioP1;P1;durP2;ratioP2;P2;SDS_P1;SDS_P2;PMS_P1;PMS_P2;Temp;Humidity;BMP_temperature;BMP_pressure;BME280_temperature;BME280_humidity;BME280_pressure;Samples;Min_cycle;Max_cycle;Signal;HPM_P1;HPM_P2
2022/02/11 00:02:17;;;;;;;5.82;2.90;;;4.20;99.90;;;;;;5021399;28;20185;-83
2022/02/11 00:07:25;;;;;;;6.30;2.80;;;4.20;99.90;;;;;;5020196;28;20260;-83
2022/02/11 00:09:52;;;;;;;5.57;3.38;;;5.10;99.90;;;;;;5022659;28;20208;-83
2022/02/11 00:12:19;;;;;;;4.75;2.60;;;4.00;99.90;;;;;;5022260;28;20248;-81
2022/02/11 00:14:52;;;;;;;5.97;2.50;;;4.30;99.90;;;;;;5025214;28;20260;-81
2022/02/11 00:17:22;;;;;;;7.95;2.97;;;4.30;99.90;;;;;;5034942;28;20196;-82
2022/02/11 00:19:49;;;;;;;5.47;2.17;;;4.30;99.90;;;;;;5032397;28;20204;-82
2022/02/11 00:22:16;;;;;;;4.13;2.80;;;4.30;99.90;;;;;;5023776;28;20204;-83
2022/02/11 00:24:42;;;;;;;6.28;2.88;;;4.20;99.90;;;;;;5022490;28;20204;-81
2022/02/11 00:27:49;;;;;;;5.97;2.55;;;4.30;99.90;;;;;;5022241;28;20212;-83
2022/02/11 00:33:14;;;;;;;4.30;2.47;;;4.30;99.90;;;;;;5009970;28;20796;-83
2022/02/11 00:35:45;;;;;;;7.97;4.45;;;4.30;99.90;;;;;;5022239;28;20262;-82
2022/02/11 00:38:17;;;;;;;4.57;2.95;;;4.40;99.90;;;;;;5021662;28;20243;-82
2022/02/11 00:41:32;;;;;;;6.18;3.58;;;4.30;99.90;;;;;;5021424;28;20251;-82
2022/02/11 00:44:47;;;;;;;3.72;3.22;;;4.30;99.90;;;;;;5020707;28;20292;-82
2022/02/11 01:03:34;;;;;;;7.35;4.63;;;4.40;99.90;;;;;;5025742;28;20192;-82
2022/02/11 01:06:01;;;;;;;10.40;6.15;;;4.40;99.90;;;;;;5037773;28;20211;-80
2022/02/11 01:08:28;;;;;;;6.97;5.45;;;4.40;99.90;;;;;;5029046;28;20276;-82
2022/02/11 01:10:57;;;;;;;8.65;5.22;;;4.50;99.90;;;;;;5022492;28;20204;-82
2022/02/11 01:13:24;;;;;;;7.38;4.70;;;4.50;99.90;;;;;;5022576;28;20310;-83
2022/02/11 01:15:58;;;;;;;4.65;3.83;;;4.40;99.90;;;;;;5022347;28;20220;-82
2022/02/11 01:18:24;;;;;;;4.88;3.85;;;4.50;99.90;;;;;;5022406;28;20192;-82
2022/02/11 01:20:57;;;;;;;7.13;3.83;;;4.50;99.90;;;;;;5022172;28;20231;-82
2022/02/11 01:23:42;;;;;;;7.65;4.70;;;4.50;99.90;;;;;;5022761;28;20754;-82
2022/02/11 01:26:24;;;;;;;5.22;3.80;;;4.50;99.90;;;;;;5022391;28;20266;-83
2022/02/11 01:29:17;;;;;;;5.93;4.50;;;4.50;99.90;;;;;;5023503;28;20189;-82
2022/02/11 01:31:54;;;;;;;7.68;4.57;;;4.40;99.90;;;;;;5023312;28;20740;-82
2022/02/11 01:34:40;;;;;;;8.77;5.70;;;4.40;99.90;;;;;;5023377;28;20258;-83
2022/02/11 01:37:23;;;;;;;5.95;5.22;;;4.40;99.90;;;;;;5023089;28;20272;-84
2022/02/11 01:40:18;;;;;;;7.65;5.60;;;4.30;99.90;;;;;;5022245;28;20193;-83
2022/02/11 01:46:18;;;;;;;6.40;4.80;;;4.40;99.90;;;;;;5020675;28;20222;-83
2022/02/11 01:49:14;;;;;;;4.40;4.00;;;4.40;99.90;;;;;;5029734;28;20252;-79
2022/02/11 01:51:49;;;;;;;8.40;5.80;;;4.40;99.90;;;;;;5027012;28;20219;-81
2022/02/11 01:54:32;;;;;;;5.85;5.38;;;4.30;99.90;;;;;;5026585;28;20262;-83
2022/02/11 01:57:06;;;;;;;6.07;4.97;;;4.30;99.90;;;;;;5023304;28;20346;-81
2022/02/11 02:03:04;;;;;;;11.07;4.80;;;4.40;99.90;;;;;;5008305;28;20196;-82
2022/02/11 02:05:54;;;;;;;8.15;5.20;;;4.40;99.90;;;;;;5021416;28;20235;-83
2022/02/11 02:11:36;;;;;;;6.75;5.18;;;4.40;99.90;;;;;;5020793;28;20561;-83
2022/02/11 02:14:46;;;;;;;6.20;5.60;;;4.30;99.90;;;;;;5020853;28;20208;-82
2022/02/11 02:20:52;;;;;;;11.60;7.53;;;4.40;99.90;;;;;;5012042;28;20193;-83
2022/02/11 02:23:12;;;;;;;5.95;5.18;;;4.30;99.90;;;;;;5021462;28;20203;-83
2022/02/11 02:25:46;;;;;;;11.40;6.00;;;4.40;99.90;;;;;;5020690;28;20247;-83
2022/02/11 02:28:53;;;;;;;8.07;6.03;;;4.40;99.90;;;;;;5026971;28;20202;-82
2022/02/11 02:34:34;;;;;;;15.90;6.80;;;4.50;99.90;;;;;;5024560;28;20216;-83
2022/02/11 02:37:20;;;;;;;7.20;5.38;;;4.50;99.90;;;;;;5021112;28;20215;-82
2022/02/11 02:59:21;;;;;;;8.07;5.78;;;4.60;99.90;;;;;;5021071;28;20187;-83
2022/02/11 03:01:54;;;;;;;8.15;5.97;;;4.60;99.90;;;;;;5025047;28;20279;-83
2022/02/11 03:34:51;;;;;;;9.88;4.25;;;4.80;99.90;;;;;;5023346;28;20184;-82
2022/02/11 03:51:25;;;;;;;7.60;5.25;;;4.80;99.90;;;;;;5024208;28;20250;-83
2022/02/11 03:57:32;;;;;;;5.70;4.32;;;4.70;99.90;;;;;;5039350;28;20216;-83
2022/02/11 04:55:21;;;;;;;13.50;6.63;;;4.70;99.90;;;;;;5067549;28;20182;-83
2022/02/11 05:00:33;;;;;;;9.57;6.85;;;4.70;99.90;;;;;;5062680;28;20225;-83
2022/02/11 05:03:00;;;;;;;10.63;6.57;;;4.70;99.90;;;;;;5066684;28;20207;-82
2022/02/11 05:05:26;;;;;;;11.20;6.93;;;4.70;99.90;;;;;;5070340;28;20207;-83
2022/02/11 05:07:53;;;;;;;16.08;7.95;;;4.70;99.90;;;;;;5071554;28;20199;-82
2022/02/11 05:10:21;;;;;;;7.47;6.40;;;4.80;99.90;;;;;;5074444;28;20291;-82
2022/02/11 05:12:48;;;;;;;14.20;7.80;;;4.80;99.90;;;;;;5075349;28;20179;-83
2022/02/11 05:15:15;;;;;;;13.10;7.05;;;4.80;99.90;;;;;;5075166;28;20199;-83
2022/02/11 05:17:45;;;;;;;27.65;7.80;;;4.70;99.90;;;;;;5073797;28;20230;-83
2022/02/11 05:20:12;;;;;;;13.05;6.70;;;4.80;99.90;;;;;;5073153;28;20235;-83
2022/02/11 05:22:39;;;;;;;10.55;7.30;;;4.80;99.90;;;;;;5073036;28;20208;-83
2022/02/11 05:25:08;;;;;;;8.70;7.25;;;4.90;99.90;;;;;;5067986;28;20203;-83
2022/02/11 05:27:34;;;;;;;11.20;5.88;;;4.80;99.90;;;;;;5069425;28;20250;-83
2022/02/11 05:30:01;;;;;;;15.25;7.00;;;4.80;99.90;;;;;;5063926;28;20219;-83
2022/02/11 05:32:28;;;;;;;8.70;6.47;;;4.80;99.90;;;;;;5063385;28;20221;-83
2022/02/11 05:34:55;;;;;;;9.95;6.35;;;4.80;99.90;;;;;;5067073;28;20215;-82
2022/02/11 05:37:23;;;;;;;11.07;6.20;;;4.70;99.90;;;;;;5053748;28;20211;-83
2022/02/11 05:39:50;;;;;;;8.45;6.30;;;4.70;99.90;;;;;;5042601;28;20242;-84
2022/02/11 05:42:17;;;;;;;12.23;6.40;;;4.70;99.90;;;;;;5042968;28;20219;-84
2022/02/11 05:44:43;;;;;;;10.90;6.00;;;4.70;99.90;;;;;;5043171;28;20208;-84
2022/02/11 05:47:10;;;;;;;9.68;6.30;;;4.60;99.90;;;;;;5042634;28;20219;-84
2022/02/11 05:49:37;;;;;;;13.65;7.65;;;4.60;99.90;;;;;;5043774;28;20246;-84
2022/02/11 05:52:05;;;;;;;11.65;6.43;;;4.70;99.90;;;;;;5049741;28;20199;-85
2022/02/11 05:54:32;;;;;;;9.15;5.82;;;4.70;99.90;;;;;;5054425;28;20231;-82
2022/02/11 05:56:59;;;;;;;8.65;6.55;;;4.60;99.90;;;;;;5054355;28;20199;-82
2022/02/11 05:59:25;;;;;;;9.20;6.45;;;4.60;99.90;;;;;;5055599;28;20227;-82
2022/02/11 06:01:52;;;;;;;16.08;8.35;;;4.60;99.90;;;;;;5055436;28;20298;-82
2022/02/11 06:04:20;;;;;;;14.02;6.22;;;4.70;99.90;;;;;;5054421;28;20207;-82
2022/02/11 06:06:48;;;;;;;8.98;6.65;;;4.70;99.90;;;;;;5053938;28;20220;-83
2022/02/11 06:09:20;;;;;;;17.77;7.18;;;4.70;99.90;;;;;;5058862;28;20211;-83
2022/02/11 06:11:46;;;;;;;9.30;6.85;;;4.90;99.90;;;;;;5052866;28;20188;-84
2022/02/11 06:14:14;;;;;;;10.05;5.95;;;4.70;99.90;;;;;;5047666;28;20204;-84
2022/02/11 06:16:40;;;;;;;11.50;6.30;;;4.70;99.90;;;;;;5047199;28;20199;-83
2022/02/11 06:19:07;;;;;;;13.55;5.78;;;4.70;99.90;;;;;;5046002;28;20224;-83
2022/02/11 06:21:34;;;;;;;14.38;8.05;;;4.70;99.90;;;;;;5045197;28;20212;-83
2022/02/11 06:24:00;;;;;;;7.93;6.20;;;4.70;99.90;;;;;;5046146;28;20204;-83
2022/02/11 06:26:28;;;;;;;15.95;7.43;;;4.70;99.90;;;;;;5056751;28;20204;-82
2022/02/11 06:28:56;;;;;;;11.52;7.13;;;4.70;99.90;;;;;;5058754;28;20208;-82
2022/02/11 06:31:23;;;;;;;11.95;7.90;;;4.70;99.90;;;;;;5059431;28;20331;-82
2022/02/11 06:33:50;;;;;;;14.77;7.32;;;4.70;99.90;;;;;;5059607;28;20203;-84
2022/02/11 06:36:19;;;;;;;12.10;7.15;;;4.70;99.90;;;;;;5050061;28;20238;-83
2022/02/11 06:38:46;;;;;;;15.10;7.38;;;4.70;99.90;;;;;;5048874;28;20223;-84
2022/02/11 06:41:13;;;;;;;11.85;8.13;;;4.60;99.90;;;;;;5047810;28;20192;-84
2022/02/11 06:43:41;;;;;;;12.77;7.05;;;4.60;99.90;;;;;;5047245;28;20203;-83
2022/02/11 06:46:08;;;;;;;10.82;7.00;;;4.60;99.90;;;;;;5044972;28;20230;-83
2022/02/11 06:48:34;;;;;;;9.93;6.35;;;4.70;99.90;;;;;;5043560;28;20208;-82
2022/02/11 06:51:01;;;;;;;11.93;7.55;;;4.60;99.90;;;;;;5044152;28;20251;-83
2022/02/11 06:53:28;;;;;;;10.32;6.97;;;4.60;99.90;;;;;;5044245;28;20207;-84
2022/02/11 06:55:55;;;;;;;11.63;7.45;;;4.60;99.90;;;;;;5044425;28;20223;-83
2022/02/11 06:58:22;;;;;;;22.00;6.35;;;4.70;99.90;;;;;;5045634;28;20204;-83
2022/02/11 07:00:51;;;;;;;14.30;7.00;;;4.60;99.90;;;;;;5050368;28;20239;-83
2022/02/11 07:03:19;;;;;;;12.73;7.75;;;4.70;99.90;;;;;;5044362;28;20199;-83
2022/02/11 07:05:46;;;;;;;14.38;7.10;;;4.80;99.90;;;;;;5044052;28;20207;-83
2022/02/11 07:08:13;;;;;;;15.75;6.70;;;4.70;99.90;;;;;;5042485;28;20758;-82
2022/02/11 07:10:39;;;;;;;15.73;8.27;;;4.70;99.90;;;;;;5044036;28;20250;-82
2022/02/11 07:13:13;;;;;;;8.35;6.90;;;4.80;99.90;;;;;;5043917;28;20568;-84
2022/02/11 07:15:40;;;;;;;12.32;7.05;;;4.80;99.90;;;;;;5043421;28;20187;-84
2022/02/11 07:18:08;;;;;;;9.98;6.93;;;4.80;99.90;;;;;;5044005;28;20551;-83
2022/02/11 07:20:35;;;;;;;10.23;6.38;;;4.80;99.90;;;;;;5044421;28;20227;-82
2022/02/11 07:23:02;;;;;;;10.82;6.90;;;4.80;99.90;;;;;;5051183;28;20211;-83
2022/02/11 07:25:29;;;;;;;9.68;6.60;;;4.80;99.90;;;;;;5049541;28;20212;-83
2022/02/11 07:27:55;;;;;;;10.75;7.43;;;4.80;99.90;;;;;;5048015;28;20226;-84
2022/02/11 07:30:22;;;;;;;20.00;8.95;;;4.90;99.90;;;;;;5047932;28;20220;-84
2022/02/11 07:32:51;;;;;;;12.00;7.57;;;4.90;99.90;;;;;;5046845;28;20207;-84
2022/02/11 07:35:20;;;;;;;12.50;6.90;;;5.00;99.90;;;;;;5046693;28;20263;-83
2022/02/11 07:37:47;;;;;;;11.85;6.70;;;4.90;99.90;;;;;;5055014;28;20204;-83
2022/02/11 07:40:14;;;;;;;8.73;6.53;;;4.90;99.90;;;;;;5057237;28;20262;-82
2022/02/11 07:42:41;;;;;;;12.82;5.38;;;5.00;99.90;;;;;;5054344;28;20204;-83
2022/02/11 07:45:09;;;;;;;7.57;5.45;;;5.00;99.90;;;;;;5053188;28;20271;-84
2022/02/11 07:47:35;;;;;;;13.15;6.95;;;5.00;99.90;;;;;;5055063;28;20218;-83
2022/02/11 07:50:02;;;;;;;12.68;6.80;;;5.00;99.90;;;;;;5058022;28;20208;-82
2022/02/11 07:52:30;;;;;;;8.55;5.60;;;5.00;99.90;;;;;;5058797;28;20208;-82
2022/02/11 07:54:57;;;;;;;7.40;6.60;;;5.00;99.90;;;;;;5058304;28;20176;-83
2022/02/11 07:57:24;;;;;;;10.38;6.45;;;5.10;99.90;;;;;;5058046;28;20200;-82
2022/02/11 07:59:51;;;;;;;12.57;7.10;;;5.00;99.90;;;;;;5051021;28;20319;-82
2022/02/11 08:02:17;;;;;;;14.57;6.50;;;5.00;99.90;;;;;;5043759;28;20199;-83
2022/02/11 08:04:44;;;;;;;14.20;6.32;;;5.00;99.90;;;;;;5056746;28;20204;-83
2022/02/11 08:07:11;;;;;;;12.52;6.78;;;5.00;99.90;;;;;;5048770;28;20230;-84
2022/02/11 08:09:39;;;;;;;10.13;5.70;;;5.00;99.90;;;;;;5044134;28;20224;-84
2022/02/11 08:12:06;;;;;;;10.95;6.13;;;4.90;99.90;;;;;;5043444;28;20265;-84
2022/02/11 08:14:33;;;;;;;12.27;5.60;;;4.80;99.90;;;;;;5042241;28;20227;-83
2022/02/11 08:17:00;;;;;;;10.20;5.35;;;4.80;99.90;;;;;;5042887;28;20195;-83
2022/02/11 08:19:27;;;;;;;7.00;4.95;;;4.70;99.90;;;;;;5041569;28;20228;-84
2022/02/11 08:21:53;;;;;;;11.68;5.82;;;4.70;99.90;;;;;;5041641;28;20207;-85
2022/02/11 08:24:20;;;;;;;9.98;5.93;;;4.90;99.90;;;;;;5041058;28;20269;-84
2022/02/11 08:26:48;;;;;;;7.85;5.53;;;4.80;99.90;;;;;;5041153;28;20694;-84
2022/02/11 08:29:21;;;;;;;9.10;5.38;;;5.10;99.90;;;;;;5042226;28;20230;-84
2022/02/11 08:31:47;;;;;;;9.02;4.50;;;4.90;99.90;;;;;;5042475;28;20303;-84
2022/02/11 08:34:14;;;;;;;8.52;5.30;;;4.80;99.90;;;;;;5042678;28;20693;-83
2022/02/11 08:36:44;;;;;;;7.35;4.78;;;4.80;99.90;;;;;;5046286;28;20200;-84
2022/02/11 08:39:11;;;;;;;12.00;5.18;;;4.90;99.90;;;;;;5052562;28;20261;-84
2022/02/11 08:41:38;;;;;;;6.20;4.95;;;4.80;99.90;;;;;;5054158;28;20204;-84
2022/02/11 08:44:06;;;;;;;9.70;4.82;;;4.80;99.90;;;;;;5054170;28;20226;-83
2022/02/11 08:46:33;;;;;;;3.90;3.60;;;4.70;99.90;;;;;;5049224;28;20203;-84
2022/02/11 08:48:59;;;;;;;7.43;4.88;;;4.70;99.90;;;;;;5055298;28;20229;-84
2022/02/11 08:51:27;;;;;;;10.35;4.28;;;4.40;99.90;;;;;;5053083;28;20203;-84
2022/02/11 08:53:56;;;;;;;7.55;4.50;;;4.60;99.90;;;;;;5048986;28;20222;-83
2022/02/11 08:56:25;;;;;;;5.75;4.82;;;4.70;99.90;;;;;;5046453;28;20249;-84
2022/02/11 08:58:52;;;;;;;6.00;3.90;;;4.70;99.90;;;;;;5044372;28;20251;-84
2022/02/11 09:01:20;;;;;;;10.82;4.88;;;4.50;99.90;;;;;;5047687;28;20284;-84
2022/02/11 09:03:47;;;;;;;7.95;4.10;;;4.40;99.90;;;;;;5041346;28;20208;-83
2022/02/11 09:06:14;;;;;;;5.82;4.72;;;4.30;99.90;;;;;;5044085;28;20204;-84
2022/02/11 09:08:41;;;;;;;7.45;4.70;;;4.20;99.90;;;;;;5042122;28;20249;-83
2022/02/11 09:11:09;;;;;;;5.82;4.95;;;4.20;99.90;;;;;;5042626;28;20211;-83
2022/02/11 09:13:36;;;;;;;10.13;4.93;;;4.30;99.90;;;;;;5045096;28;20204;-84
2022/02/11 09:16:03;;;;;;;7.30;4.85;;;4.40;99.90;;;;;;5045955;28;20283;-79
2022/02/11 09:18:31;;;;;;;14.18;5.78;;;4.70;99.90;;;;;;5043721;28;20223;-80
2022/02/11 09:20:58;;;;;;;9.23;5.22;;;4.40;99.90;;;;;;5043267;28;20208;-80
2022/02/11 09:23:25;;;;;;;6.95;5.22;;;4.40;99.90;;;;;;5042226;28;20250;-80
2022/02/11 09:25:53;;;;;;;9.73;5.53;;;4.40;99.90;;;;;;5043042;28;20195;-79
2022/02/11 09:28:20;;;;;;;8.57;5.13;;;4.60;99.90;;;;;;5041314;28;20732;-78
2022/02/11 09:30:47;;;;;;;9.88;5.53;;;4.50;99.90;;;;;;5044149;28;20219;-84
2022/02/11 09:33:16;;;;;;;6.75;5.95;;;4.60;99.90;;;;;;5053876;28;20689;-84
2022/02/11 09:35:45;;;;;;;9.90;5.95;;;4.60;99.90;;;;;;5058721;28;20290;-83
2022/02/11 09:38:13;;;;;;;8.48;5.63;;;4.70;99.90;;;;;;5059464;28;20188;-84
2022/02/11 09:40:51;;;;;;;9.70;5.72;;;4.70;99.90;;;;;;5052267;28;20866;-84
2022/02/11 09:43:19;;;;;;;9.05;5.45;;;4.60;99.90;;;;;;5049148;28;20180;-83
2022/02/11 09:45:46;;;;;;;8.93;5.45;;;;;;;;;;5044938;28;20206;-84
2022/02/11 09:48:13;;;;;;;10.77;6.20;;;;;;;;;;5044533;28;20682;-84
2022/02/11 09:50:42;;;;;;;7.72;5.03;;;4.60;99.90;;;;;;5044408;28;20230;-84
2022/02/11 09:53:13;;;;;;;11.00;5.97;;;4.70;99.90;;;;;;5044112;28;20222;-83
2022/02/11 09:55:42;;;;;;;8.75;4.93;;;4.90;99.90;;;;;;5044836;28;20198;-83
2022/02/11 09:58:11;;;;;;;8.48;5.78;;;4.20;99.90;;;;;;5044556;28;20196;-84
2022/02/11 10:00:40;;;;;;;7.25;5.25;;;4.90;99.90;;;;;;5044885;28;20571;-83
2022/02/11 10:03:16;;;;;;;8.80;5.50;;;4.70;99.90;;;;;;5045313;28;20208;-84
2022/02/11 10:05:43;;;;;;;13.05;6.55;;;5.20;99.90;;;;;;5052878;28;20179;-83
2022/02/11 10:08:11;;;;;;;6.25;5.10;;;5.00;99.90;;;;;;5053188;28;20246;-83
2022/02/11 10:10:42;;;;;;;7.80;7.10;;;4.80;99.90;;;;;;5054109;28;20354;-83
2022/02/11 10:13:11;;;;;;;11.63;6.13;;;5.00;99.90;;;;;;5049893;28;20284;-83
2022/02/11 10:15:40;;;;;;;7.50;6.35;;;5.40;99.90;;;;;;5049076;28;20204;-84
2022/02/11 10:18:07;;;;;;;6.57;5.88;;;5.10;99.90;;;;;;5051432;28;20227;-84
2022/02/11 10:20:37;;;;;;;6.25;5.22;;;5.10;99.90;;;;;;5056687;28;20212;-83
2022/02/11 10:23:17;;;;;;;9.85;5.80;;;5.10;99.90;;;;;;5053869;28;20214;-84
2022/02/11 10:26:00;;;;;;;13.93;5.97;;;5.20;99.90;;;;;;5057209;28;20195;-84
2022/02/11 10:28:35;;;;;;;9.70;6.20;;;5.20;99.90;;;;;;5055608;28;20220;-84
2022/02/11 10:31:11;;;;;;;7.10;6.35;;;5.30;99.90;;;;;;5056041;28;20225;-84
2022/02/11 10:34:00;;;;;;;8.85;5.68;;;6.60;99.90;;;;;;5060431;28;20178;-83
2022/02/11 10:36:35;;;;;;;11.93;7.47;;;5.30;99.90;;;;;;5060506;28;20247;-84
2022/02/11 10:39:10;;;;;;;7.47;6.15;;;5.30;99.90;;;;;;5059507;28;20231;-82
2022/02/11 10:41:43;;;;;;;15.85;6.10;;;5.40;99.90;;;;;;5059244;28;20199;-83
2022/02/11 10:44:16;;;;;;;6.57;5.80;;;5.50;99.90;;;;;;5058355;28;20199;-83
2022/02/11 10:46:44;;;;;;;14.55;7.20;;;5.40;99.90;;;;;;5059199;28;20191;-83
2022/02/11 10:49:16;;;;;;;8.27;6.30;;;5.80;99.90;;;;;;5054536;28;20674;-84
2022/02/11 10:55:18;;;;;;;9.25;5.95;;;5.90;99.90;;;;;;5050568;28;20225;-84
2022/02/11 10:58:47;;;;;;;8.55;5.43;;;6.10;99.90;;;;;;5060006;28;20189;-85
2022/02/11 11:01:18;;;;;;;5.30;4.80;;;;;;;;;;5059622;28;20204;-84
2022/02/11 11:03:47;;;;;;;9.20;6.03;;;6.10;99.90;;;;;;5059466;28;20210;-84
2022/02/11 11:06:23;;;;;;;8.25;5.85;;;6.20;99.90;;;;;;5059411;28;20278;-84
2022/02/11 11:08:57;;;;;;;6.45;5.47;;;5.80;99.90;;;;;;5058381;28;20230;-85
2022/02/11 11:11:32;;;;;;;7.80;5.65;;;7.00;99.90;;;;;;5056879;28;20267;-83
2022/02/11 11:14:03;;;;;;;12.65;5.68;;;6.00;99.90;;;;;;5063423;22;20234;-86
2022/02/11 11:16:34;;;;;;;7.53;5.18;;;6.10;99.90;;;;;;5055313;28;20168;-87
2022/02/11 11:19:00;;;;;;;7.28;5.60;;;6.10;99.90;;;;;;5059468;28;20172;-86
2022/02/11 11:21:29;;;;;;;7.00;4.93;;;;;;;;;;5059452;28;20191;-87
2022/02/11 11:23:58;;;;;;;9.40;4.50;;;6.60;1.00;;;;;;5059148;28;20231;-87
2022/02/11 11:26:38;;;;;;;17.92;5.30;;;6.40;1.00;;;;;;5055220;28;20198;-87
2022/02/11 11:29:15;;;;;;;5.47;4.95;;;8.50;1.00;;;;;;5058406;28;20275;-87
2022/02/11 11:31:59;;;;;;;10.75;5.22;;;6.00;99.90;;;;;;5053429;28;20223;-84
2022/02/11 11:34:31;;;;;;;10.20;5.30;;;6.70;99.90;;;;;;5047956;28;20238;-86
2022/02/11 11:37:07;;;;;;;6.72;5.15;;;6.50;99.90;;;;;;5057246;28;20180;-86
2022/02/11 11:39:40;;;;;;;5.32;4.82;;;7.60;99.90;;;;;;5057921;28;20215;-85
2022/02/11 11:42:14;;;;;;;8.55;5.40;;;6.90;1.00;;;;;;5047542;28;20219;-87
2022/02/11 11:44:52;;;;;;;6.78;4.55;;;6.90;72.80;;;;;;5048772;28;20228;-86
2022/02/11 11:47:28;;;;;;;9.88;4.97;;;6.70;1.00;;;;;;5045331;28;20195;-87
2022/02/11 11:49:56;;;;;;;5.15;4.40;;;6.00;99.90;;;;;;5049542;28;20234;-86
2022/02/11 11:52:39;;;;;;;5.13;4.60;;;7.50;99.90;;;;;;5043102;28;20290;-86
2022/02/11 11:55:17;;;;;;;8.70;6.45;;;6.20;99.90;;;;;;5045561;28;20226;-86
2022/02/11 11:57:51;;;;;;;8.90;4.60;;;5.60;99.90;;;;;;5046308;28;20206;-86
2022/02/11 12:06:48;;;;;;;6.88;4.45;;;;;;;;;;4993581;28;20308;-84
2022/02/11 12:09:41;;;;;;;7.50;4.60;;;6.00;99.90;;;;;;5047382;28;20239;-85
2022/02/11 12:12:14;;;;;;;10.43;4.93;;;6.10;28.70;;;;;;5051003;28;20646;-86
2022/02/11 12:14:48;;;;;;;6.28;4.30;;;6.30;1.00;;;;;;5047747;28;20234;-85
2022/02/11 12:17:26;;;;;;;6.25;5.75;;;6.30;1.00;;;;;;5050385;28;20188;-85
2022/02/11 12:29:32;;;;;;;6.75;5.22;;;6.40;99.90;;;;;;5055727;28;20214;-86
2022/02/11 12:32:05;;;;;;;8.88;5.82;;;6.40;1.00;;;;;;5051673;28;20263;-86
2022/02/11 12:34:33;;;;;;;6.82;6.13;;;6.40;1.00;;;;;;5048138;28;20285;-86
2022/02/11 12:37:03;;;;;;;9.23;6.60;;;;;;;;;;5048929;28;20203;-87
2022/02/11 12:39:32;;;;;;;8.02;6.32;;;;;;;;;;5050224;28;20627;-87
2022/02/11 12:52:40;;;;;;;10.48;5.60;;;6.40;99.90;;;;;;4971488;28;20327;-84
2022/02/11 12:58:25;;;;;;;10.35;5.82;;;6.10;1.00;;;;;;4979415;28;20294;-85
2022/02/11 13:09:56;;;;;;;6.60;5.43;;;5.90;1.00;;;;;;5046708;28;20290;-84
2022/02/11 13:15:05;;;;;;;10.18;5.93;;;7.30;1.00;;;;;;5054904;22;20219;-84
2022/02/11 13:17:32;;;;;;;6.00;4.57;;;5.80;1.00;;;;;;5047843;28;20215;-84
2022/02/11 13:20:08;;;;;;;8.48;5.43;;;5.80;1.00;;;;;;5049413;28;20211;-83
2022/02/11 13:22:35;;;;;;;5.20;4.63;;;5.80;1.00;;;;;;5051497;28;20268;-83
2022/02/11 13:25:05;;;;;;;4.55;3.97;;;5.80;1.00;;;;;;5050501;28;20310;-83
2022/02/11 13:27:50;;;;;;;6.45;3.80;;;5.70;1.00;;;;;;5051156;28;20214;-85
2022/02/11 13:30:31;;;;;;;5.53;4.20;;;5.80;1.00;;;;;;5048921;28;20204;-86
2022/02/11 13:33:01;;;;;;;4.90;4.45;;;6.10;1.00;;;;;;5048421;28;20250;-86
2022/02/11 13:35:29;;;;;;;4.75;4.35;;;6.00;1.00;;;;;;5048655;28;20204;-85
2022/02/11 13:38:00;;;;;;;4.53;4.10;;;6.20;1.00;;;;;;5055912;28;20267;-84
2022/02/11 13:40:33;;;;;;;4.97;4.57;;;6.00;1.00;;;;;;5049321;28;20184;-85
2022/02/11 13:43:05;;;;;;;4.45;4.15;;;5.80;1.00;;;;;;5048677;28;20235;-85
2022/02/11 13:45:51;;;;;;;5.25;4.85;;;6.40;99.90;;;;;;5048472;28;20238;-85
2022/02/11 13:48:21;;;;;;;8.15;5.38;;;5.90;99.90;;;;;;5049588;28;20219;-85
2022/02/11 13:51:05;;;;;;;6.45;4.50;;;6.10;1.00;;;;;;5049838;28;20623;-85
2022/02/11 13:53:43;;;;;;;5.40;4.90;;;6.10;1.00;;;;;;5050173;28;20752;-85
2022/02/11 13:56:17;;;;;;;5.70;5.20;;;6.00;99.90;;;;;;5050920;28;20211;-85
2022/02/11 13:59:04;;;;;;;6.18;4.70;;;6.10;99.90;;;;;;5049832;28;20201;-86
2022/02/11 14:01:33;;;;;;;6.55;5.63;;;6.20;1.00;;;;;;5049513;28;20215;-84
2022/02/11 14:04:02;;;;;;;6.38;5.38;;;6.10;1.00;;;;;;5049460;28;20230;-85
2022/02/11 14:06:36;;;;;;;6.68;6.05;;;6.10;1.00;;;;;;5049251;28;20203;-83
2022/02/11 14:09:07;;;;;;;6.22;5.68;;;6.40;1.00;;;;;;5048242;28;20231;-83
2022/02/11 14:11:40;;;;;;;6.43;5.30;;;5.80;1.00;;;;;;5047775;28;20199;-83
2022/02/11 14:14:50;;;;;;;7.10;5.75;;;5.70;1.00;;;;;;5054418;22;20250;-83
2022/02/11 14:17:20;;;;;;;6.85;6.25;;;5.70;1.00;;;;;;5009856;28;20296;-85
2022/02/11 14:22:31;;;;;;;10.63;6.53;;;;;;;;;;5035543;28;20664;-83
2022/02/11 14:25:17;;;;;;;9.98;6.88;;;5.80;1.00;;;;;;5050108;28;20210;-84
2022/02/11 14:27:48;;;;;;;7.75;6.22;;;6.40;1.00;;;;;;5051905;28;20227;-85
2022/02/11 14:30:21;;;;;;;6.60;6.00;;;5.70;1.00;;;;;;5049361;28;20235;-84
2022/02/11 14:33:16;;;;;;;7.38;5.90;;;5.80;1.00;;;;;;5049443;28;20239;-84
2022/02/11 14:35:48;;;;;;;7.65;5.35;;;5.80;1.00;;;;;;5041638;28;20215;-85
2022/02/11 14:38:43;;;;;;;7.25;6.57;;;5.70;1.00;;;;;;5046881;28;20227;-83
2022/02/11 14:47:22;;;;;;;8.25;6.93;;;6.00;99.90;;;;;;4963581;28;20643;-77
2022/02/11 14:49:49;;;;;;;6.65;6.05;;;5.90;99.90;;;;;;5043327;28;20236;-77
2022/02/11 14:52:16;;;;;;;7.45;6.78;;;6.00;1.00;;;;;;5044340;28;20204;-77
2022/02/11 14:54:43;;;;;;;7.47;6.78;;;6.10;1.00;;;;;;5056216;28;20226;-84
2022/02/11 14:57:10;;;;;;;8.57;5.60;;;6.20;1.00;;;;;;5059418;28;20219;-82
2022/02/11 14:59:36;;;;;;;6.95;6.35;;;6.10;1.00;;;;;;5056987;28;20187;-82
2022/02/11 15:02:18;;;;;;;7.05;6.15;;;6.10;1.00;;;;;;5056545;28;20231;-81
2022/02/11 15:05:14;;;;;;;6.93;5.93;;;6.10;1.00;;;;;;5096609;22;20231;-81
2022/02/11 15:08:16;;;;;;;5.88;5.38;;;6.30;1.00;;;;;;5050232;28;20188;-82
2022/02/11 15:10:45;;;;;;;6.65;5.95;;;6.50;99.90;;;;;;5045577;28;20259;-83
2022/02/11 15:13:13;;;;;;;5.95;5.40;;;;;;;;;;5047105;28;20224;-85
2022/02/11 15:19:26;;;;;;;6.55;5.95;;;;;;;;;;4898698;28;20205;-83
2022/02/11 15:22:00;;;;;;;7.18;5.80;;;6.20;99.90;;;;;;5002971;28;20208;-84
2022/02/11 15:24:33;;;;;;;7.60;6.82;;;6.20;1.00;;;;;;5047512;28;20228;-83
2022/02/11 15:30:40;;;;;;;10.90;7.20;;;6.10;99.90;;;;;;4935559;29;20203;-82
2022/02/11 15:33:10;;;;;;;12.18;6.43;;;;;;;;;;4979223;28;20286;-82
2022/02/11 15:35:41;;;;;;;7.68;6.97;;;6.10;99.90;;;;;;5044974;28;20180;-83
2022/02/11 15:38:09;;;;;;;10.88;7.15;;;;;;;;;;5044899;28;20263;-83
2022/02/11 15:40:45;;;;;;;6.85;6.15;;;5.90;1.00;;;;;;5046066;28;20199;-83
2022/02/11 15:46:36;;;;;;;9.20;8.18;;;5.60;1.00;;;;;;4887959;29;20231;-82
2022/02/11 15:50:16;;;;;;;9.45;8.05;;;6.00;1.00;;;;;;4922578;29;20253;-84
2022/02/11 15:52:43;;;;;;;11.05;6.68;;;;;;;;;;4965849;28;20286;-85
2022/02/11 15:55:11;;;;;;;8.02;7.22;;;5.50;1.00;;;;;;4969349;29;20213;-85
2022/02/11 15:57:38;;;;;;;6.80;6.10;;;5.50;1.00;;;;;;5020561;28;20234;-86
2022/02/11 16:00:07;;;;;;;9.63;7.38;;;5.50;16.30;;;;;;5048620;28;20227;-82
2022/02/11 16:02:36;;;;;;;9.55;6.60;;;5.40;23.70;;;;;;5055607;28;20198;-83
2022/02/11 16:05:04;;;;;;;9.40;7.47;;;5.50;3.00;;;;;;5055486;28;20235;-84
2022/02/11 16:10:14;;;;;;;9.48;7.10;;;;;;;;;;5020204;28;20286;-78
2022/02/11 16:12:41;;;;;;;8.43;7.63;;;5.40;56.20;;;;;;5050897;28;20199;-78
2022/02/11 16:15:14;;;;;;;8.52;6.80;;;5.30;34.10;;;;;;5052173;28;20203;-78
2022/02/11 16:17:59;;;;;;;8.82;7.97;;;5.30;58.20;;;;;;5050158;28;20234;-86
2022/02/11 16:20:26;;;;;;;10.02;9.00;;;5.20;65.80;;;;;;5043918;28;20199;-80
2022/02/11 16:22:53;;;;;;;12.15;8.88;;;5.10;97.20;;;;;;5053580;28;20258;-79
2022/02/11 16:25:20;;;;;;;9.82;8.82;;;5.10;72.10;;;;;;5052534;28;20188;-80
2022/02/11 16:27:46;;;;;;;9.00;7.68;;;5.00;1.00;;;;;;5050276;28;20256;-80
2022/02/11 16:30:13;;;;;;;12.95;8.25;;;5.10;1.00;;;;;;5054626;28;20292;-84
2022/02/11 16:32:41;;;;;;;9.25;8.45;;;5.00;1.00;;;;;;5057545;28;20202;-84
2022/02/11 16:35:08;;;;;;;10.70;9.25;;;5.10;1.00;;;;;;5057762;28;20184;-84
2022/02/11 16:37:36;;;;;;;9.02;7.95;;;5.30;99.90;;;;;;5056526;28;20208;-82
2022/02/11 16:40:06;;;;;;;9.65;8.35;;;5.50;63.70;;;;;;5055457;28;20199;-82
2022/02/11 16:42:33;;;;;;;10.55;8.38;;;5.40;1.00;;;;;;5056930;28;20195;-85
2022/02/11 16:45:02;;;;;;;13.05;8.80;;;5.30;1.00;;;;;;5057268;28;20223;-85
2022/02/11 16:47:29;;;;;;;10.75;8.25;;;5.40;1.00;;;;;;5053182;28;20223;-86
2022/02/11 16:49:57;;;;;;;11.32;9.00;;;5.40;1.00;;;;;;5049662;28;20224;-85
2022/02/11 16:52:24;;;;;;;11.30;9.23;;;5.50;1.00;;;;;;5050544;28;20219;-86
2022/02/11 16:54:51;;;;;;;15.45;10.35;;;5.40;1.00;;;;;;5052727;28;20223;-84
2022/02/11 16:57:19;;;;;;;12.07;8.10;;;5.40;1.00;;;;;;5057120;28;20188;-83
2022/02/11 16:59:49;;;;;;;12.40;8.70;;;5.50;1.00;;;;;;5057432;28;20219;-85
2022/02/11 17:02:16;;;;;;;14.10;9.73;;;5.30;1.00;;;;;;5056782;28;20180;-86
2022/02/11 17:04:44;;;;;;;11.20;8.80;;;5.40;1.00;;;;;;5057055;28;20291;-87
2022/02/11 17:07:13;;;;;;;12.35;8.93;;;5.20;1.00;;;;;;5057557;28;20187;-84
2022/02/11 17:09:50;;;;;;;10.82;9.23;;;5.30;70.10;;;;;;5057417;28;20262;-88
2022/02/11 17:15:13;;;;;;;8.85;7.97;;;5.30;57.30;;;;;;5062268;22;20236;-80
2022/02/11 17:17:40;;;;;;;8.98;8.18;;;5.20;47.60;;;;;;5045119;28;20204;-80
2022/02/11 17:20:09;;;;;;;9.25;8.25;;;5.20;71.50;;;;;;5044451;28;20211;-80